createdAt,value
2019-05-23T00:02:14.730Z,101583.36
2019-05-23T00:07:16.497Z,101576.44
2019-05-23T00:12:12.478Z,101572.13
2019-05-23T00:17:10.279Z,101578.87
2019-05-23T00:22:06.286Z,101588.19
2019-05-23T00:27:02.433Z,101579.39
2019-05-23T00:32:04.413Z,101581.02
2019-05-23T00:36:58.769Z,101576.10
2019-05-23T00:41:53.161Z,101573.98
2019-05-23T00:46:48.127Z,101583.86
2019-05-23T00:51:42.082Z,101579.50
2019-05-23T00:56:37.364Z,101572.73
2019-05-23T01:01:33.412Z,101574.53
2019-05-23T01:06:28.815Z,101563.49
2019-05-23T01:11:23.464Z,101561.77
2019-05-23T01:16:18.147Z,101566.45
2019-05-23T01:21:17.325Z,101563.04
2019-05-23T01:26:12.795Z,101559.48
2019-05-23T01:31:08.753Z,101569.28
2019-05-23T01:36:04.005Z,101562.83
2019-05-23T01:40:58.819Z,101573.30
2019-05-23T01:45:52.970Z,101567.16
2019-05-23T01:50:48.223Z,101564.84
2019-05-23T01:55:43.089Z,101560.38
2019-05-23T02:00:37.345Z,101563.41
2019-05-23T02:05:32.518Z,101561.63
2019-05-23T02:10:27.991Z,101556.70
2019-05-23T02:15:22.049Z,101560.14
2019-05-23T02:20:18.343Z,101564.06
2019-05-23T02:25:13.835Z,101557.36
2019-05-23T02:30:30.190Z,101559.94
2019-05-23T02:35:07.737Z,101555.75
2019-05-23T02:40:23.251Z,101558.34
2019-05-23T02:45:23.339Z,101550.80
2019-05-23T02:50:43.104Z,101552.59
2019-05-23T02:55:38.245Z,101550.45
2019-05-23T03:00:53.421Z,101545.41
2019-05-23T03:05:38.213Z,101555.77
2019-05-23T03:10:46.905Z,101553.19
2019-05-23T03:15:41.465Z,101553.88
2019-05-23T03:20:35.768Z,101547.41
2019-05-23T03:25:34.880Z,101550.65
2019-05-23T03:30:34.053Z,101548.09
2019-05-23T03:35:29.875Z,101551.67
2019-05-23T03:40:23.970Z,101544.70
2019-05-23T03:45:20.530Z,101543.38
2019-05-23T03:50:15.900Z,101542.98
2019-05-23T03:55:11.165Z,101535.68
2019-05-23T04:00:08.675Z,101539.77
2019-05-23T04:05:06.850Z,101544.12
2019-05-23T04:10:00.911Z,101539.38
2019-05-23T04:14:55.072Z,101546.45
2019-05-23T04:19:49.137Z,101545.40
2019-05-23T04:24:43.137Z,101547.08
2019-05-23T04:29:37.187Z,101542.01
2019-05-23T04:34:31.139Z,101542.62
2019-05-23T04:39:25.203Z,101548.39
2019-05-23T04:44:19.451Z,101544.81
2019-05-23T04:49:14.017Z,101542.02
2019-05-23T04:54:08.631Z,101537.73
2019-05-23T04:59:03.185Z,101538.36
2019-05-23T05:03:57.461Z,101536.76
2019-05-23T05:08:53.733Z,101539.84
2019-05-23T05:13:47.988Z,101533.15
2019-05-23T05:18:41.947Z,101543.34
2019-05-23T05:23:36.321Z,101545.41
2019-05-23T05:28:30.321Z,101545.91
2019-05-23T05:33:24.383Z,101546.79
2019-05-23T05:38:18.956Z,101551.82
2019-05-23T05:43:13.658Z,101546.21
2019-05-23T05:48:08.193Z,101549.25
2019-05-23T05:53:02.665Z,101556.81
2019-05-23T05:57:56.612Z,101558.30
2019-05-23T06:03:03.542Z,101563.53
2019-05-23T06:07:47.229Z,101559.00
2019-05-23T06:12:41.590Z,101564.92
2019-05-23T06:17:35.978Z,101562.66
2019-05-23T06:22:30.135Z,101572.26
2019-05-23T06:27:24.229Z,101569.48
2019-05-23T06:32:20.611Z,101575.21
2019-05-23T06:37:14.960Z,101576.94
2019-05-23T06:42:09.316Z,101577.18
2019-05-23T06:47:05.153Z,101574.88
2019-05-23T06:51:59.437Z,101574.48
2019-05-23T06:56:53.376Z,101570.08
2019-05-23T07:01:47.636Z,101577.81
2019-05-23T07:06:42.852Z,101568.89
2019-05-23T07:11:37.120Z,101566.73
2019-05-23T07:16:31.447Z,101566.52
2019-05-23T07:21:25.403Z,101566.69
2019-05-23T07:26:19.508Z,101568.38
2019-05-23T07:31:13.646Z,101569.13
2019-05-23T07:36:08.039Z,101569.48
2019-05-23T07:41:02.692Z,101570.09
2019-05-23T07:45:58.529Z,101564.18
2019-05-23T07:50:52.608Z,101565.50
2019-05-23T07:55:51.453Z,101566.09
2019-05-23T08:00:47.435Z,101555.89
2019-05-23T08:05:42.406Z,101554.97
2019-05-23T08:10:36.888Z,101555.09
2019-05-23T08:15:31.353Z,101552.75
2019-05-23T08:20:26.138Z,101557.27
2019-05-23T08:25:20.196Z,101555.54
2019-05-23T08:30:15.405Z,101549.61
2019-05-23T08:35:10.191Z,101551.42
2019-05-23T08:40:05.380Z,101550.42
2019-05-23T08:45:00.054Z,101541.22
2019-05-23T08:49:54.531Z,101542.78
2019-05-23T08:54:52.325Z,101540.03
2019-05-23T08:59:46.315Z,101538.05
2019-05-23T09:05:01.180Z,101528.05
2019-05-23T09:09:36.782Z,101528.94
2019-05-23T09:14:30.752Z,101533.75
2019-05-23T09:19:24.975Z,101522.37
2019-05-23T09:24:19.130Z,101517.45
2019-05-23T09:29:13.177Z,101510.73
2019-05-23T09:34:07.423Z,101509.73
2019-05-23T09:39:01.576Z,101520.33
2019-05-23T09:43:55.541Z,101511.03
2019-05-23T09:48:49.723Z,101512.63
2019-05-23T09:53:47.273Z,101509.86
2019-05-23T09:58:40.382Z,101498.93
2019-05-23T10:03:34.342Z,101494.23
2019-05-23T10:08:28.309Z,101490.83
2019-05-23T10:13:37.752Z,101484.79
2019-05-23T10:18:20.780Z,101476.25
2019-05-23T10:23:14.817Z,101472.75
2019-05-23T10:28:09.216Z,101464.44
2019-05-23T10:33:11.044Z,101461.02
2019-05-23T10:37:59.718Z,101458.06
2019-05-23T10:42:53.888Z,101448.16
2019-05-23T10:47:47.867Z,101443.39
2019-05-23T10:52:42.045Z,101435.06
2019-05-23T10:57:36.183Z,101431.91
2019-05-23T11:02:30.568Z,101434.36
2019-05-23T11:07:24.988Z,101419.72
2019-05-23T11:12:19.063Z,101419.02
2019-05-23T11:17:13.373Z,101415.92
2019-05-23T11:22:08.268Z,101405.02
2019-05-23T11:27:02.730Z,101399.05
2019-05-23T11:31:56.969Z,101389.50
2019-05-23T11:36:51.063Z,101387.17
2019-05-23T11:41:45.484Z,101389.94
2019-05-23T11:46:40.172Z,101394.92
2019-05-23T11:51:35.120Z,101388.44
2019-05-23T11:56:30.010Z,101375.70
2019-05-23T12:01:40.982Z,101366.66
2019-05-23T12:06:53.433Z,101359.36
2019-05-23T12:11:36.609Z,101367.45
2019-05-23T12:16:29.727Z,101361.23
2019-05-23T12:21:24.600Z,101363.45
2019-05-23T12:26:18.669Z,101352.42
2019-05-23T12:31:13.032Z,101350.05
2019-05-23T12:36:08.321Z,101348.17
2019-05-23T12:41:02.958Z,101343.38
2019-05-23T12:45:56.933Z,101343.39
2019-05-23T12:51:05.193Z,101341.17
2019-05-23T12:55:59.681Z,101326.77
2019-05-23T13:00:55.990Z,101332.17
2019-05-23T13:05:51.013Z,101314.31
2019-05-23T13:10:45.390Z,101319.45
2019-05-23T13:15:39.592Z,101309.69
2019-05-23T13:20:34.260Z,101306.47
2019-05-23T13:25:28.483Z,101310.78
2019-05-23T13:30:22.538Z,101290.63
2019-05-23T13:35:16.894Z,101294.27
2019-05-23T13:40:11.329Z,101285.66
2019-05-23T13:45:05.810Z,101275.54
2019-05-23T13:49:59.851Z,101280.54
2019-05-23T13:54:53.948Z,101280.28
2019-05-23T13:59:48.026Z,101273.03
2019-05-23T14:04:42.332Z,101270.35
2019-05-23T14:09:36.646Z,101277.48
2019-05-23T14:14:31.257Z,101259.81
2019-05-23T14:19:29.242Z,101261.59
2019-05-23T14:24:21.413Z,101255.14
2019-05-23T14:29:15.621Z,101249.27
2019-05-23T14:34:10.137Z,101243.02
2019-05-23T14:39:08.036Z,101238.26
2019-05-23T14:44:02.477Z,101224.66
2019-05-23T14:49:07.253Z,101228.48
2019-05-23T14:54:05.887Z,101238.88
2019-05-23T14:59:00.291Z,101229.42
2019-05-23T15:03:54.531Z,101226.04
2019-05-23T15:08:51.604Z,101224.38
2019-05-23T15:13:44.958Z,101208.30
2019-05-23T15:18:38.957Z,101202.72
2019-05-23T15:23:33.178Z,101197.96
2019-05-23T15:28:27.279Z,101196.11
2019-05-23T15:33:21.408Z,101192.15
2019-05-23T15:38:15.398Z,101196.14
2019-05-23T15:43:10.295Z,101185.84
2019-05-23T15:48:04.914Z,101193.13
2019-05-23T15:53:17.471Z,101187.67
2019-05-23T15:58:16.451Z,101181.91
2019-05-23T16:03:31.505Z,101177.88
2019-05-23T16:08:26.061Z,101166.16
2019-05-23T16:13:20.361Z,101172.94
2019-05-23T16:18:14.780Z,101162.80
2019-05-23T16:23:09.085Z,101164.22
2019-05-23T16:28:03.307Z,101164.16
2019-05-23T16:32:57.341Z,101163.48
2019-05-23T16:37:51.555Z,101160.91
2019-05-23T16:42:45.684Z,101161.91
2019-05-23T16:47:39.859Z,101163.38
2019-05-23T16:52:34.781Z,101162.93
2019-05-23T16:57:39.704Z,101171.38
2019-05-23T17:02:52.442Z,101168.56
2019-05-23T17:08:04.473Z,101169.11
2019-05-23T17:13:06.424Z,101168.15
2019-05-23T17:18:09.051Z,101169.02
2019-05-23T17:23:20.313Z,101168.80
2019-05-23T17:28:16.315Z,101168.59
2019-05-23T17:33:22.210Z,101167.31
2019-05-23T17:38:16.418Z,101166.24
2019-05-23T17:43:11.008Z,101165.20
2019-05-23T17:48:05.742Z,101154.55
2019-05-23T17:52:59.693Z,101157.52
2019-05-23T17:57:56.798Z,101161.54
2019-05-23T18:02:50.701Z,101156.33
2019-05-23T18:07:44.842Z,101157.73
2019-05-23T18:12:38.878Z,101155.95
2019-05-23T18:17:33.044Z,101153.22
2019-05-23T18:22:29.337Z,101158.75
2019-05-23T18:27:23.438Z,101154.56
2019-05-23T18:32:19.464Z,101157.54
2019-05-23T18:37:13.513Z,101151.08
2019-05-23T18:42:07.882Z,101155.95
2019-05-23T18:47:03.891Z,101165.44
2019-05-23T18:51:58.117Z,101168.84
2019-05-23T18:56:52.223Z,101171.52
2019-05-23T19:01:46.630Z,101171.65
2019-05-23T19:06:42.606Z,101175.16
2019-05-23T19:11:36.883Z,101175.73
2019-05-23T19:16:32.427Z,101182.37
2019-05-23T19:21:27.840Z,101180.39
2019-05-23T19:26:22.193Z,101188.77
2019-05-23T19:31:16.177Z,101185.36
2019-05-23T19:36:11.292Z,101192.52
2019-05-23T19:41:07.231Z,101193.74
2019-05-23T19:46:01.309Z,101200.64
2019-05-23T19:50:56.478Z,101207.36
2019-05-23T19:55:50.945Z,101205.67
2019-05-23T20:00:45.414Z,101210.30
2019-05-23T20:05:41.469Z,101226.69
2019-05-23T20:10:36.946Z,101232.72
2019-05-23T20:15:31.491Z,101232.66
2019-05-23T20:20:25.843Z,101231.38
2019-05-23T20:25:20.762Z,101240.98
2019-05-23T20:30:35.573Z,101233.66
2019-05-23T20:35:29.571Z,101233.91
2019-05-23T20:40:23.980Z,101241.81
2019-05-23T20:45:18.053Z,101242.41
2019-05-23T20:50:12.275Z,101232.93
2019-05-23T20:55:06.936Z,101238.77
2019-05-23T21:00:01.233Z,101245.77
2019-05-23T21:04:55.493Z,101241.05
2019-05-23T21:09:49.579Z,101232.56
2019-05-23T21:14:43.944Z,101224.13
2019-05-23T21:19:38.119Z,101229.97
2019-05-23T21:24:32.806Z,101225.67
2019-05-23T21:29:26.893Z,101237.28
2019-05-23T21:34:22.215Z,101232.37
2019-05-23T21:39:16.833Z,101239.63
2019-05-23T21:44:10.932Z,101231.90
2019-05-23T21:49:05.151Z,101224.27
2019-05-23T21:53:59.249Z,101226.42
2019-05-23T21:58:53.475Z,101228.31
2019-05-23T22:03:52.243Z,101221.38
2019-05-23T22:08:47.820Z,101216.78
2019-05-23T22:13:41.903Z,101224.80
2019-05-23T22:18:36.220Z,101220.40
2019-05-23T22:23:30.310Z,101214.39
2019-05-23T22:28:24.316Z,101205.14
2019-05-23T22:33:20.199Z,101212.31
2019-05-23T22:38:14.283Z,101211.66
2019-05-23T22:43:20.144Z,101208.98
2019-05-23T22:48:04.745Z,101207.45
2019-05-23T22:52:58.716Z,101203.59
2019-05-23T22:57:52.782Z,101199.02
2019-05-23T23:02:46.955Z,101207.88
2019-05-23T23:07:41.369Z,101200.20
2019-05-23T23:12:35.333Z,101202.75
2019-05-23T23:17:29.920Z,101200.92
2019-05-23T23:22:23.873Z,101200.59
2019-05-23T23:27:17.966Z,101191.14
2019-05-23T23:32:12.270Z,101197.02
2019-05-23T23:37:06.340Z,101192.03
2019-05-23T23:42:00.335Z,101180.86
2019-05-23T23:47:13.040Z,101183.23
2019-05-23T23:52:25.464Z,101180.06
2019-05-23T23:57:38.217Z,101171.51
